NDF48C EDDH-LOWI
Flight info
| Callsign | NDF48C |
|---|---|
| Flight time | 1h 13m |
| Altitude | 35000 |
| Route | AMLUH2G/33 AMLUH M852 DENIX DCT ZUCKA/N0458F310 DCT GALMA M736 RDG/N0462F300 M736 DOSEL/N0461F310 M736 TULSI TULSI3A |
| Aircraft | A320/M-SDE3FGHIRWY/LB1 |
Departure
| Time | 2026-05-05 14:55 |
|---|---|
| Airport | Hamburg Helmut Schmidt Airport (EDDH) |
Arrival
| Time | 2026-05-05 16:08 |
|---|---|
| Airport | Innsbruck Airport (LOWI) |
| Time | Latitude | Longitude | Altitude | Speed | Heading |
|---|---|---|---|---|---|
| 2026-05-05 14:32 | 53.63372 | 10.00342 | 49 ft | 0 kts | 86° |
| 2026-05-05 14:44 | 53.63372 | 10.00341 | 48 ft | 2 kts | 86° |
| 2026-05-05 14:45 | 53.63371 | 10.00313 | 45 ft | 2 kts | 86° |
| 2026-05-05 14:45 | 53.63371 | 10.00284 | 43 ft | 2 kts | 95° |
| 2026-05-05 14:45 | 53.63373 | 10.00255 | 44 ft | 2 kts | 103° |
| 2026-05-05 14:45 | 53.63378 | 10.00227 | 46 ft | 3 kts | 129° |
| 2026-05-05 14:46 | 53.63392 | 10.00207 | 46 ft | 3 kts | 165° |
| 2026-05-05 14:46 | 53.63405 | 10.00204 | 48 ft | 0 kts | 188° |
| 2026-05-05 14:46 | 53.63421 | 10.00207 | 48 ft | 3 kts | 194° |
| 2026-05-05 14:46 | 53.63434 | 10.00213 | 48 ft | 3 kts | 174° |
| 2026-05-05 14:47 | 53.63440 | 10.00212 | 48 ft | 0 kts | 168° |
| 2026-05-05 14:50 | 53.63418 | 10.00221 | 44 ft | 8 kts | 167° |
| 2026-05-05 14:51 | 53.63368 | 10.00231 | 44 ft | 10 kts | 175° |
| 2026-05-05 14:51 | 53.63262 | 10.00244 | 48 ft | 17 kts | 176° |
| 2026-05-05 14:51 | 53.63139 | 10.00258 | 48 ft | 19 kts | 176° |
| 2026-05-05 14:51 | 53.63015 | 10.00211 | 47 ft | 20 kts | 212° |
| 2026-05-05 14:52 | 53.62897 | 10.00084 | 48 ft | 19 kts | 216° |
| 2026-05-05 14:52 | 53.62841 | 9.99954 | 48 ft | 0 kts | 242° |
| 2026-05-05 14:53 | 53.62841 | 9.99953 | 48 ft | 1 kts | 242° |
| 2026-05-05 14:53 | 53.62818 | 9.99879 | 44 ft | 10 kts | 242° |
| 2026-05-05 14:53 | 53.62831 | 9.99778 | 43 ft | 9 kts | 314° |
| 2026-05-05 14:54 | 53.62849 | 9.99760 | 45 ft | 0 kts | 331° |
| 2026-05-05 14:54 | 53.62994 | 9.99632 | 45 ft | 61 kts | 333° |
| 2026-05-05 14:54 | 53.63573 | 9.99133 | 47 ft | 122 kts | 332° |
| 2026-05-05 14:54 | 53.64474 | 9.98344 | 121 ft | 160 kts | 332° |
| 2026-05-05 14:55 | 53.65426 | 9.97516 | 851 ft | 149 kts | 332° |
| 2026-05-05 14:55 | 53.66342 | 9.96739 | 1572 ft | 145 kts | 332° |
| 2026-05-05 14:55 | 53.67204 | 9.96028 | 2151 ft | 146 kts | 335° |
| 2026-05-05 14:55 | 53.68236 | 9.95178 | 2356 ft | 179 kts | 335° |
| 2026-05-05 14:56 | 53.69525 | 9.94666 | 2682 ft | 204 kts | 358° |
| 2026-05-05 14:56 | 53.70997 | 9.94655 | 3111 ft | 220 kts | 359° |
| 2026-05-05 14:56 | 53.72510 | 9.95087 | 3903 ft | 224 kts | 28° |
| 2026-05-05 14:56 | 53.73620 | 9.96909 | 4711 ft | 227 kts | 64° |
| 2026-05-05 14:57 | 53.74008 | 9.99508 | 5529 ft | 229 kts | 82° |
| 2026-05-05 14:57 | 53.74131 | 10.02205 | 6316 ft | 232 kts | 95° |
| 2026-05-05 14:57 | 53.73768 | 10.04895 | 6946 ft | 244 kts | 113° |
| 2026-05-05 14:57 | 53.72934 | 10.07509 | 7322 ft | 268 kts | 120° |
| 2026-05-05 14:58 | 53.71974 | 10.10333 | 7963 ft | 280 kts | 120° |
| 2026-05-05 14:58 | 53.71007 | 10.13186 | 8778 ft | 284 kts | 120° |
| 2026-05-05 14:58 | 53.70010 | 10.16090 | 9576 ft | 289 kts | 123° |
| 2026-05-05 14:58 | 53.68728 | 10.18747 | 9900 ft | 291 kts | 137° |
| 2026-05-05 14:59 | 53.67088 | 10.20787 | 9996 ft | 301 kts | 152° |
| 2026-05-05 14:59 | 53.65059 | 10.22154 | 10013 ft | 333 kts | 165° |
| 2026-05-05 14:59 | 53.62752 | 10.23190 | 10014 ft | 348 kts | 165° |
| 2026-05-05 14:59 | 53.60393 | 10.24255 | 10011 ft | 352 kts | 165° |
| 2026-05-05 15:00 | 53.57990 | 10.25349 | 10522 ft | 359 kts | 165° |
| 2026-05-05 15:00 | 53.56395 | 10.26077 | 11119 ft | 359 kts | 165° |
| 2026-05-05 15:00 | 53.53140 | 10.27563 | 12162 ft | 363 kts | 165° |
| 2026-05-05 15:00 | 53.50727 | 10.28665 | 12853 ft | 366 kts | 165° |
| 2026-05-05 15:01 | 53.48248 | 10.29801 | 13535 ft | 370 kts | 165° |
| 2026-05-05 15:01 | 53.45743 | 10.30950 | 14199 ft | 374 kts | 165° |
| 2026-05-05 15:01 | 53.43213 | 10.32108 | 14844 ft | 377 kts | 165° |
| 2026-05-05 15:01 | 53.40692 | 10.33258 | 15476 ft | 381 kts | 165° |
| 2026-05-05 15:02 | 53.38113 | 10.34428 | 16101 ft | 384 kts | 165° |
| 2026-05-05 15:02 | 53.35511 | 10.35602 | 16701 ft | 388 kts | 165° |
| 2026-05-05 15:02 | 53.32889 | 10.36777 | 17288 ft | 391 kts | 165° |
| 2026-05-05 15:02 | 53.30247 | 10.37956 | 17876 ft | 395 kts | 165° |
| 2026-05-05 15:03 | 53.27608 | 10.39129 | 18327 ft | 402 kts | 165° |
| 2026-05-05 15:03 | 53.24856 | 10.40353 | 18698 ft | 408 kts | 165° |
| 2026-05-05 15:03 | 53.22113 | 10.41578 | 19458 ft | 406 kts | 165° |
| 2026-05-05 15:03 | 53.19370 | 10.42807 | 20041 ft | 408 kts | 165° |
| 2026-05-05 15:04 | 53.16652 | 10.44018 | 20560 ft | 411 kts | 165° |
| 2026-05-05 15:04 | 53.13872 | 10.45253 | 21049 ft | 414 kts | 165° |
| 2026-05-05 15:04 | 53.11065 | 10.46413 | 21525 ft | 417 kts | 167° |
| 2026-05-05 15:04 | 53.08212 | 10.47399 | 21987 ft | 420 kts | 169° |
| 2026-05-05 15:05 | 53.02411 | 10.49092 | 22856 ft | 426 kts | 171° |
| 2026-05-05 15:05 | 52.99480 | 10.49916 | 23268 ft | 428 kts | 170° |
| 2026-05-05 15:05 | 52.96536 | 10.50771 | 23676 ft | 431 kts | 170° |
| 2026-05-05 15:06 | 52.93576 | 10.51664 | 24061 ft | 433 kts | 169° |
| 2026-05-05 15:06 | 52.90604 | 10.52581 | 24446 ft | 436 kts | 169° |
| 2026-05-05 15:06 | 52.87652 | 10.53502 | 24800 ft | 438 kts | 169° |
| 2026-05-05 15:06 | 52.84648 | 10.54443 | 25158 ft | 440 kts | 169° |
| 2026-05-05 15:07 | 52.81626 | 10.55387 | 25499 ft | 443 kts | 169° |
| 2026-05-05 15:07 | 52.78584 | 10.56329 | 25835 ft | 445 kts | 169° |
| 2026-05-05 15:07 | 52.75529 | 10.57269 | 26148 ft | 447 kts | 169° |
| 2026-05-05 15:07 | 52.72457 | 10.58211 | 26464 ft | 450 kts | 169° |
| 2026-05-05 15:08 | 52.69367 | 10.59155 | 26768 ft | 452 kts | 169° |
| 2026-05-05 15:08 | 52.66306 | 10.60089 | 27061 ft | 454 kts | 169° |
| 2026-05-05 15:08 | 52.63193 | 10.61039 | 27342 ft | 455 kts | 169° |
| 2026-05-05 15:08 | 52.60070 | 10.61996 | 27613 ft | 457 kts | 169° |
| 2026-05-05 15:09 | 52.56930 | 10.62957 | 27872 ft | 459 kts | 169° |
| 2026-05-05 15:09 | 52.53778 | 10.63916 | 28125 ft | 461 kts | 169° |
| 2026-05-05 15:09 | 52.50614 | 10.64878 | 28372 ft | 463 kts | 169° |
| 2026-05-05 15:09 | 52.47443 | 10.65835 | 28603 ft | 464 kts | 170° |
| 2026-05-05 15:10 | 52.44270 | 10.66792 | 28912 ft | 464 kts | 169° |
| 2026-05-05 15:10 | 52.41090 | 10.67751 | 29240 ft | 463 kts | 169° |
| 2026-05-05 15:10 | 52.37928 | 10.68704 | 29551 ft | 462 kts | 169° |
| 2026-05-05 15:10 | 52.34800 | 10.69648 | 29871 ft | 461 kts | 169° |
| 2026-05-05 15:11 | 52.31640 | 10.70604 | 30182 ft | 461 kts | 169° |
| 2026-05-05 15:11 | 52.28488 | 10.71553 | 30493 ft | 460 kts | 170° |
| 2026-05-05 15:11 | 52.25326 | 10.72504 | 30807 ft | 460 kts | 170° |
| 2026-05-05 15:11 | 52.22219 | 10.73436 | 31093 ft | 459 kts | 170° |
| 2026-05-05 15:12 | 52.19068 | 10.74381 | 31380 ft | 459 kts | 170° |
| 2026-05-05 15:12 | 52.15924 | 10.75320 | 31684 ft | 459 kts | 170° |
| 2026-05-05 15:12 | 52.12783 | 10.76252 | 31998 ft | 458 kts | 170° |
| 2026-05-05 15:12 | 52.09656 | 10.77182 | 32296 ft | 457 kts | 170° |
| 2026-05-05 15:13 | 52.06526 | 10.78114 | 32590 ft | 456 kts | 170° |
| 2026-05-05 15:13 | 52.03399 | 10.79048 | 32887 ft | 455 kts | 170° |
| 2026-05-05 15:13 | 52.00282 | 10.79974 | 33178 ft | 455 kts | 170° |
| 2026-05-05 15:13 | 51.97166 | 10.80899 | 33462 ft | 454 kts | 170° |
| 2026-05-05 15:14 | 51.94081 | 10.81811 | 33738 ft | 454 kts | 170° |
| 2026-05-05 15:14 | 51.90969 | 10.82727 | 34008 ft | 454 kts | 170° |
| 2026-05-05 15:14 | 51.87857 | 10.83645 | 34284 ft | 453 kts | 170° |
| 2026-05-05 15:14 | 51.84788 | 10.84549 | 34559 ft | 453 kts | 170° |
| 2026-05-05 15:15 | 51.81675 | 10.85466 | 34816 ft | 453 kts | 170° |
| 2026-05-05 15:15 | 51.78573 | 10.86378 | 35043 ft | 453 kts | 170° |
| 2026-05-05 15:15 | 51.75456 | 10.87290 | 35274 ft | 453 kts | 170° |
| 2026-05-05 15:15 | 51.72402 | 10.88278 | 35499 ft | 452 kts | 165° |
| 2026-05-05 15:16 | 51.69442 | 10.90017 | 35734 ft | 452 kts | 154° |
| 2026-05-05 15:16 | 51.66734 | 10.92599 | 35943 ft | 452 kts | 143° |
| 2026-05-05 15:16 | 51.64362 | 10.95931 | 36145 ft | 452 kts | 133° |
| 2026-05-05 15:16 | 51.62375 | 10.99784 | 36342 ft | 452 kts | 128° |
| 2026-05-05 15:17 | 51.60425 | 11.03760 | 36517 ft | 452 kts | 128° |
| 2026-05-05 15:17 | 51.58467 | 11.07729 | 36702 ft | 452 kts | 128° |
| 2026-05-05 15:17 | 51.56504 | 11.11691 | 36889 ft | 452 kts | 129° |
| 2026-05-05 15:17 | 51.54539 | 11.15640 | 36993 ft | 454 kts | 129° |
| 2026-05-05 15:18 | 51.52557 | 11.19614 | 37011 ft | 456 kts | 129° |
| 2026-05-05 15:18 | 51.48575 | 11.27587 | 37009 ft | 462 kts | 129° |
| 2026-05-05 15:19 | 51.44525 | 11.35666 | 37009 ft | 466 kts | 130° |
| 2026-05-05 15:19 | 51.42233 | 11.39369 | 37009 ft | 467 kts | 141° |
| 2026-05-05 15:19 | 51.39596 | 11.42304 | 37009 ft | 468 kts | 152° |
| 2026-05-05 15:20 | 51.33443 | 11.45648 | 37009 ft | 469 kts | 173° |
| 2026-05-05 15:20 | 51.26922 | 11.46369 | 37009 ft | 470 kts | 177° |
| 2026-05-05 15:21 | 51.20421 | 11.46991 | 37008 ft | 472 kts | 176° |
| 2026-05-05 15:21 | 51.13854 | 11.47624 | 37010 ft | 473 kts | 176° |
| 2026-05-05 15:22 | 51.07267 | 11.48260 | 37018 ft | 473 kts | 176° |
| 2026-05-05 15:22 | 51.00722 | 11.48887 | 37025 ft | 474 kts | 177° |
| 2026-05-05 15:23 | 50.94117 | 11.49503 | 37028 ft | 475 kts | 177° |
| 2026-05-05 15:23 | 50.87550 | 11.50115 | 37029 ft | 475 kts | 176° |
| 2026-05-05 15:24 | 50.80944 | 11.50742 | 37035 ft | 475 kts | 176° |
| 2026-05-05 15:24 | 50.74318 | 11.51383 | 37037 ft | 475 kts | 176° |
| 2026-05-05 15:25 | 50.67770 | 11.52006 | 37030 ft | 475 kts | 176° |
| 2026-05-05 15:25 | 50.61171 | 11.52631 | 37032 ft | 475 kts | 176° |
| 2026-05-05 15:26 | 50.54636 | 11.54121 | 37026 ft | 475 kts | 162° |
| 2026-05-05 15:26 | 50.48495 | 11.58022 | 37024 ft | 476 kts | 157° |
| 2026-05-05 15:27 | 50.42413 | 11.62041 | 37026 ft | 477 kts | 157° |
| 2026-05-05 15:27 | 50.36274 | 11.66071 | 37030 ft | 478 kts | 157° |
| 2026-05-05 15:28 | 50.30161 | 11.70085 | 37033 ft | 478 kts | 157° |
| 2026-05-05 15:28 | 50.24007 | 11.74123 | 37033 ft | 478 kts | 157° |
| 2026-05-05 15:29 | 50.17900 | 11.78121 | 37037 ft | 478 kts | 157° |
| 2026-05-05 15:29 | 50.11758 | 11.82145 | 37033 ft | 477 kts | 158° |
| 2026-05-05 15:30 | 50.05661 | 11.86110 | 37026 ft | 477 kts | 158° |
| 2026-05-05 15:30 | 50.00552 | 11.89420 | 37021 ft | 477 kts | 158° |
| 2026-05-05 15:31 | 49.93410 | 11.94035 | 37028 ft | 478 kts | 158° |
| 2026-05-05 15:31 | 49.88259 | 11.97355 | 37030 ft | 477 kts | 158° |
| 2026-05-05 15:32 | 49.82158 | 12.01312 | 37029 ft | 477 kts | 158° |
| 2026-05-05 15:32 | 49.76014 | 12.05263 | 37034 ft | 477 kts | 158° |
| 2026-05-05 15:33 | 49.70062 | 12.09657 | 37030 ft | 477 kts | 146° |
| 2026-05-05 15:33 | 49.64819 | 12.15964 | 37031 ft | 477 kts | 141° |
| 2026-05-05 15:34 | 49.59668 | 12.22320 | 37045 ft | 471 kts | 141° |
| 2026-05-05 15:34 | 49.57136 | 12.25430 | 37039 ft | 459 kts | 141° |
| 2026-05-05 15:34 | 49.54653 | 12.28473 | 37018 ft | 455 kts | 142° |
| 2026-05-05 15:34 | 49.52185 | 12.31491 | 36514 ft | 452 kts | 142° |
| 2026-05-05 15:35 | 49.49721 | 12.34500 | 35826 ft | 452 kts | 142° |
| 2026-05-05 15:35 | 49.47254 | 12.37507 | 35080 ft | 452 kts | 142° |
| 2026-05-05 15:35 | 49.43982 | 12.41493 | 34068 ft | 453 kts | 142° |
| 2026-05-05 15:35 | 49.42340 | 12.43489 | 33525 ft | 455 kts | 142° |
| 2026-05-05 15:36 | 49.39849 | 12.46511 | 32692 ft | 456 kts | 142° |
| 2026-05-05 15:36 | 49.37273 | 12.49390 | 31845 ft | 457 kts | 149° |
| 2026-05-05 15:36 | 49.34474 | 12.51583 | 31247 ft | 456 kts | 159° |
| 2026-05-05 15:36 | 49.31427 | 12.53050 | 31028 ft | 459 kts | 168° |
| 2026-05-05 15:37 | 49.28249 | 12.53733 | 30998 ft | 464 kts | 177° |
| 2026-05-05 15:37 | 49.21716 | 12.53556 | 31009 ft | 474 kts | 182° |
| 2026-05-05 15:38 | 49.15103 | 12.53230 | 31009 ft | 480 kts | 182° |
| 2026-05-05 15:38 | 49.08382 | 12.52881 | 31009 ft | 484 kts | 182° |
| 2026-05-05 15:39 | 49.01676 | 12.52532 | 31009 ft | 485 kts | 182° |
| 2026-05-05 15:39 | 48.94924 | 12.52031 | 31009 ft | 484 kts | 183° |
| 2026-05-05 15:40 | 48.88188 | 12.51462 | 31009 ft | 483 kts | 183° |
| 2026-05-05 15:40 | 48.81502 | 12.50915 | 31009 ft | 483 kts | 183° |
| 2026-05-05 15:41 | 48.74767 | 12.50401 | 31009 ft | 484 kts | 183° |
| 2026-05-05 15:41 | 48.68065 | 12.49906 | 31006 ft | 484 kts | 183° |
| 2026-05-05 15:42 | 48.61326 | 12.49392 | 31008 ft | 484 kts | 183° |
| 2026-05-05 15:42 | 48.54632 | 12.48886 | 31006 ft | 484 kts | 183° |
| 2026-05-05 15:43 | 48.47898 | 12.48130 | 31002 ft | 484 kts | 191° |
| 2026-05-05 15:43 | 48.41610 | 12.44657 | 31001 ft | 483 kts | 211° |
| 2026-05-05 15:44 | 48.36354 | 12.38469 | 31002 ft | 482 kts | 221° |
| 2026-05-05 15:44 | 48.31235 | 12.31911 | 31001 ft | 483 kts | 220° |
| 2026-05-05 15:45 | 48.26129 | 12.25441 | 31009 ft | 483 kts | 220° |
| 2026-05-05 15:45 | 48.20972 | 12.18935 | 31009 ft | 483 kts | 220° |
| 2026-05-05 15:46 | 48.15823 | 12.12438 | 31009 ft | 484 kts | 220° |
| 2026-05-05 15:46 | 48.10699 | 12.05982 | 31009 ft | 483 kts | 220° |
| 2026-05-05 15:47 | 48.05533 | 11.99494 | 31007 ft | 483 kts | 220° |
| 2026-05-05 15:47 | 48.00406 | 11.93061 | 31007 ft | 483 kts | 220° |
| 2026-05-05 15:48 | 47.95267 | 11.86628 | 31006 ft | 483 kts | 220° |
| 2026-05-05 15:48 | 47.89507 | 11.81491 | 31002 ft | 484 kts | 200° |
| 2026-05-05 15:49 | 47.82961 | 11.79584 | 30999 ft | 483 kts | 182° |
| 2026-05-05 15:49 | 47.79629 | 11.79404 | 31008 ft | 470 kts | 182° |
| 2026-05-05 15:49 | 47.76382 | 11.79228 | 31008 ft | 465 kts | 182° |
| 2026-05-05 15:50 | 47.69968 | 11.79559 | 31009 ft | 464 kts | 169° |
| 2026-05-05 15:50 | 47.63805 | 11.82445 | 30839 ft | 466 kts | 159° |
| 2026-05-05 15:50 | 47.60770 | 11.84148 | 30588 ft | 466 kts | 159° |
| 2026-05-05 15:51 | 47.57767 | 11.85825 | 30341 ft | 467 kts | 160° |
| 2026-05-05 15:51 | 47.54622 | 11.87037 | 30085 ft | 466 kts | 173° |
| 2026-05-05 15:51 | 47.51397 | 11.87038 | 29836 ft | 465 kts | 188° |
| 2026-05-05 15:51 | 47.48278 | 11.85791 | 29585 ft | 464 kts | 204° |
| 2026-05-05 15:52 | 47.45496 | 11.83381 | 29335 ft | 465 kts | 219° |
| 2026-05-05 15:52 | 47.43230 | 11.79981 | 29084 ft | 466 kts | 234° |
| 2026-05-05 15:52 | 47.41643 | 11.75882 | 28832 ft | 467 kts | 248° |
| 2026-05-05 15:52 | 47.40796 | 11.71277 | 28588 ft | 466 kts | 261° |
| 2026-05-05 15:53 | 47.40312 | 11.66519 | 28338 ft | 469 kts | 262° |
| 2026-05-05 15:53 | 47.39828 | 11.61731 | 27398 ft | 471 kts | 262° |
| 2026-05-05 15:53 | 47.39337 | 11.56913 | 26135 ft | 475 kts | 261° |
| 2026-05-05 15:53 | 47.38846 | 11.52161 | 25130 ft | 473 kts | 261° |
| 2026-05-05 15:54 | 47.38348 | 11.47390 | 24280 ft | 468 kts | 261° |
| 2026-05-05 15:54 | 47.37851 | 11.42668 | 23426 ft | 462 kts | 261° |
| 2026-05-05 15:54 | 47.37360 | 11.38014 | 22614 ft | 457 kts | 261° |
| 2026-05-05 15:54 | 47.36872 | 11.33388 | 21824 ft | 452 kts | 261° |
| 2026-05-05 15:55 | 47.36389 | 11.28829 | 21056 ft | 447 kts | 261° |
| 2026-05-05 15:55 | 47.35916 | 11.24375 | 20325 ft | 443 kts | 261° |
| 2026-05-05 15:55 | 47.35439 | 11.19896 | 19600 ft | 438 kts | 261° |
| 2026-05-05 15:55 | 47.34968 | 11.15484 | 18927 ft | 433 kts | 261° |
| 2026-05-05 15:56 | 47.34566 | 11.11726 | 18352 ft | 429 kts | 261° |
| 2026-05-05 15:56 | 47.34102 | 11.07412 | 17717 ft | 424 kts | 261° |
| 2026-05-05 15:56 | 47.33644 | 11.03179 | 17111 ft | 419 kts | 261° |
| 2026-05-05 15:56 | 47.33184 | 10.98950 | 16511 ft | 414 kts | 261° |
| 2026-05-05 15:57 | 47.32730 | 10.94772 | 15917 ft | 410 kts | 261° |
| 2026-05-05 15:57 | 47.32279 | 10.90641 | 15334 ft | 406 kts | 261° |
| 2026-05-05 15:57 | 47.31833 | 10.86549 | 14711 ft | 402 kts | 261° |
| 2026-05-05 15:57 | 47.31679 | 10.82468 | 14107 ft | 399 kts | 276° |
| 2026-05-05 15:58 | 47.32382 | 10.78592 | 13512 ft | 395 kts | 293° |
| 2026-05-05 15:58 | 47.33406 | 10.74865 | 13098 ft | 386 kts | 284° |
| 2026-05-05 15:58 | 47.33638 | 10.71014 | 12984 ft | 369 kts | 264° |
| 2026-05-05 15:58 | 47.32965 | 10.67538 | 13005 ft | 350 kts | 243° |
| 2026-05-05 15:59 | 47.31525 | 10.64778 | 13010 ft | 333 kts | 220° |
| 2026-05-05 15:59 | 47.29566 | 10.63141 | 13006 ft | 318 kts | 197° |
| 2026-05-05 15:59 | 47.27420 | 10.62832 | 13004 ft | 305 kts | 172° |
| 2026-05-05 15:59 | 47.25479 | 10.63844 | 13007 ft | 292 kts | 146° |
| 2026-05-05 16:00 | 47.24116 | 10.65886 | 12999 ft | 278 kts | 120° |
| 2026-05-05 16:00 | 47.23600 | 10.68572 | 12650 ft | 277 kts | 87° |
| 2026-05-05 16:00 | 47.24230 | 10.71298 | 11573 ft | 296 kts | 54° |
| 2026-05-05 16:00 | 47.25581 | 10.73654 | 10521 ft | 299 kts | 51° |
| 2026-05-05 16:01 | 47.26715 | 10.76103 | 9751 ft | 287 kts | 60° |
| 2026-05-05 16:01 | 47.27679 | 10.78641 | 8959 ft | 280 kts | 60° |
| 2026-05-05 16:01 | 47.28654 | 10.81093 | 8162 ft | 274 kts | 59° |
| 2026-05-05 16:01 | 47.29612 | 10.83492 | 7447 ft | 267 kts | 62° |
| 2026-05-05 16:02 | 47.30364 | 10.85921 | 6907 ft | 255 kts | 72° |
| 2026-05-05 16:02 | 47.30573 | 10.88431 | 6388 ft | 242 kts | 93° |
| 2026-05-05 16:02 | 47.30491 | 10.90791 | 6330 ft | 230 kts | 92° |
| 2026-05-05 16:02 | 47.30498 | 10.93122 | 6252 ft | 227 kts | 85° |
| 2026-05-05 16:03 | 47.30635 | 10.95433 | 6168 ft | 225 kts | 85° |
| 2026-05-05 16:03 | 47.30767 | 10.97735 | 6202 ft | 225 kts | 85° |
| 2026-05-05 16:03 | 47.30893 | 11.00026 | 6272 ft | 224 kts | 85° |
| 2026-05-05 16:03 | 47.30983 | 11.02314 | 6298 ft | 224 kts | 89° |
| 2026-05-05 16:04 | 47.31006 | 11.04611 | 6314 ft | 220 kts | 89° |
| 2026-05-05 16:04 | 47.30971 | 11.06747 | 6389 ft | 204 kts | 95° |
| 2026-05-05 16:04 | 47.30688 | 11.08784 | 6361 ft | 202 kts | 110° |
| 2026-05-05 16:04 | 47.30093 | 11.10660 | 6229 ft | 201 kts | 118° |
| 2026-05-05 16:05 | 47.29442 | 11.12480 | 6040 ft | 200 kts | 118° |
| 2026-05-05 16:05 | 47.28792 | 11.14299 | 5870 ft | 200 kts | 118° |
| 2026-05-05 16:05 | 47.28150 | 11.16096 | 5680 ft | 195 kts | 117° |
| 2026-05-05 16:05 | 47.27556 | 11.17846 | 5518 ft | 191 kts | 117° |
| 2026-05-05 16:06 | 47.26963 | 11.19614 | 5189 ft | 194 kts | 116° |
| 2026-05-05 16:06 | 47.26340 | 11.21412 | 4687 ft | 199 kts | 118° |
| 2026-05-05 16:06 | 47.25622 | 11.23202 | 3919 ft | 204 kts | 119° |
| 2026-05-05 16:06 | 47.25204 | 11.25143 | 3169 ft | 200 kts | 92° |
| 2026-05-05 16:07 | 47.25320 | 11.27111 | 2867 ft | 182 kts | 80° |
| 2026-05-05 16:07 | 47.25451 | 11.28851 | 2643 ft | 164 kts | 82° |
| 2026-05-05 16:07 | 47.25632 | 11.30454 | 2414 ft | 152 kts | 83° |
| 2026-05-05 16:07 | 47.25760 | 11.31944 | 2171 ft | 144 kts | 82° |
| 2026-05-05 16:08 | 47.25913 | 11.33377 | 1930 ft | 137 kts | 81° |
| 2026-05-05 16:08 | 47.26041 | 11.34518 | 1902 ft | 75 kts | 82° |
| 2026-05-05 16:08 | 47.26100 | 11.35085 | 1901 ft | 48 kts | 81° |
| 2026-05-05 16:08 | 47.26091 | 11.35262 | 1898 ft | 2 kts | 169° |
| 2026-05-05 16:09 | 47.26063 | 11.35268 | 1899 ft | 6 kts | 172° |
| 2026-05-05 16:09 | 47.26024 | 11.35274 | 1893 ft | 5 kts | 175° |
| 2026-05-05 16:09 | 47.25979 | 11.35281 | 1904 ft | 8 kts | 173° |
| 2026-05-05 16:09 | 47.25912 | 11.35278 | 1901 ft | 10 kts | 210° |
| 2026-05-05 16:10 | 47.25888 | 11.35199 | 1901 ft | 8 kts | 259° |
| 2026-05-05 16:10 | 47.25859 | 11.35145 | 1898 ft | 6 kts | 205° |
| 2026-05-05 16:10 | 47.25830 | 11.35146 | 1901 ft | 0 kts | 167° |